createdAt,value
2022-09-05T00:01:30.128Z,21.77
2022-09-05T00:04:25.107Z,21.76
2022-09-05T00:07:01.896Z,21.73
2022-09-05T00:09:52.733Z,21.71
2022-09-05T00:12:21.029Z,21.66
2022-09-05T00:15:17.834Z,21.62
2022-09-05T00:19:28.444Z,21.60
2022-09-05T00:24:20.904Z,21.48
2022-09-05T00:24:36.508Z,21.51
2022-09-05T00:26:54.169Z,21.53
2022-09-05T00:30:52.320Z,21.53
2022-09-05T00:32:36.340Z,21.51
2022-09-05T00:35:25.920Z,21.51
2022-09-05T00:37:56.096Z,21.49
2022-09-05T00:40:31.233Z,21.51
2022-09-05T00:43:03.257Z,21.51
2022-09-05T00:45:38.737Z,21.51
2022-09-05T00:48:19.587Z,21.51
2022-09-05T00:51:10.212Z,21.49
2022-09-05T00:53:45.661Z,21.49
2022-09-05T00:56:31.735Z,21.50
2022-09-05T00:59:27.956Z,21.51
2022-09-05T01:02:05.223Z,21.53
2022-09-05T01:04:43.958Z,21.57
2022-09-05T01:07:25.718Z,21.58
2022-09-05T01:10:05.321Z,21.58
2022-09-05T01:12:52.670Z,21.58
2022-09-05T01:15:32.775Z,21.56
2022-09-05T01:18:28.697Z,21.56
2022-09-05T01:21:22.866Z,21.53
2022-09-05T01:24:27.804Z,21.50
2022-09-05T01:29:13.189Z,21.52
2022-09-05T01:30:37.068Z,21.50
2022-09-05T01:33:17.962Z,21.44
2022-09-05T01:36:07.747Z,21.50
2022-09-05T01:39:09.656Z,21.50
2022-09-05T01:41:39.395Z,21.49
2022-09-05T01:44:37.857Z,21.49
2022-09-05T01:47:29.298Z,21.30
2022-09-05T01:50:08.192Z,21.46
2022-09-05T01:53:04.866Z,21.47
2022-09-05T01:56:05.196Z,21.43
2022-09-05T01:58:57.526Z,21.45
2022-09-05T02:01:34.824Z,21.44
2022-09-05T02:04:31.125Z,21.45
2022-09-05T02:07:15.277Z,21.43
2022-09-05T02:10:37.717Z,21.43
2022-09-05T02:13:20.732Z,21.42
2022-09-05T02:15:59.692Z,21.42
2022-09-05T02:18:44.483Z,21.44
2022-09-05T02:21:25.508Z,21.46
2022-09-05T02:24:04.189Z,21.41
2022-09-05T02:26:37.461Z,21.49
2022-09-05T02:29:28.976Z,21.50
2022-09-05T02:32:02.184Z,21.48
2022-09-05T02:34:40.550Z,21.50
2022-09-05T02:37:22.818Z,21.48
2022-09-05T02:45:02.723Z,21.48
2022-09-05T02:45:11.155Z,21.46
2022-09-05T02:46:05.073Z,21.44
2022-09-05T02:48:47.269Z,21.43
2022-09-05T02:57:28.482Z,21.42
2022-09-05T02:57:40.616Z,21.40
2022-09-05T02:57:42.127Z,21.42
2022-09-05T03:00:13.265Z,21.38
2022-09-05T03:03:06.055Z,21.39
2022-09-05T03:05:39.180Z,21.36
2022-09-05T03:08:20.135Z,21.35
2022-09-05T03:11:05.144Z,21.35
2022-09-05T03:14:01.722Z,21.34
2022-09-05T03:17:01.251Z,21.32
2022-09-05T03:20:04.299Z,21.31
2022-09-05T03:23:05.721Z,21.30
2022-09-05T03:26:24.442Z,21.28
2022-09-05T03:29:16.680Z,21.29
2022-09-05T03:32:10.563Z,21.29
2022-09-05T03:35:08.741Z,21.30
2022-09-05T03:38:18.126Z,21.32
2022-09-05T03:41:00.173Z,21.34
2022-09-05T03:43:57.950Z,21.35
2022-09-05T03:46:38.699Z,21.34
2022-09-05T03:53:17.995Z,21.35
2022-09-05T03:57:06.640Z,21.34
2022-09-05T03:57:23.882Z,21.35
2022-09-05T03:58:57.142Z,21.33
2022-09-05T04:03:17.906Z,21.32
2022-09-05T04:08:13.584Z,21.32
2022-09-05T04:08:18.262Z,21.29
2022-09-05T04:10:27.338Z,21.28
2022-09-05T04:13:02.693Z,21.29
2022-09-05T04:15:39.706Z,21.28
2022-09-05T04:18:32.737Z,21.28
2022-09-05T04:21:07.750Z,21.25
2022-09-05T04:23:47.587Z,21.09
2022-09-05T04:26:30.220Z,21.26
2022-09-05T04:29:15.120Z,21.26
2022-09-05T04:32:18.204Z,21.23
2022-09-05T04:34:57.212Z,21.23
2022-09-05T04:37:48.475Z,21.23
2022-09-05T04:40:40.760Z,21.21
2022-09-05T04:43:14.316Z,21.21
2022-09-05T04:45:47.171Z,21.21
2022-09-05T04:48:22.314Z,21.22
2022-09-05T04:51:05.125Z,21.23
2022-09-05T04:54:20.143Z,21.22
2022-09-05T04:56:56.358Z,21.24
2022-09-05T05:03:56.517Z,21.28
2022-09-05T05:05:59.627Z,21.29
2022-09-05T05:06:14.277Z,21.13
2022-09-05T05:08:29.123Z,21.32
2022-09-05T05:17:54.206Z,21.31
2022-09-05T05:17:57.091Z,21.27
2022-09-05T05:18:12.507Z,21.33
2022-09-05T05:20:40.445Z,21.33
2022-09-05T05:22:55.972Z,21.34
2022-09-05T05:25:24.191Z,21.32
2022-09-05T05:28:10.265Z,21.36
2022-09-05T05:30:51.057Z,21.34
2022-09-05T05:33:29.508Z,21.38
2022-09-05T05:36:01.485Z,21.39
2022-09-05T05:38:39.757Z,21.39
2022-09-05T05:41:18.560Z,21.40
2022-09-05T05:43:48.431Z,21.39
2022-09-05T05:46:28.870Z,21.34
2022-09-05T05:49:09.585Z,21.43
2022-09-05T05:52:02.116Z,21.43
2022-09-05T05:54:40.664Z,21.45
2022-09-05T05:57:55.070Z,21.46
2022-09-05T06:00:32.565Z,21.44
2022-09-05T06:03:46.340Z,21.49
2022-09-05T06:06:42.888Z,21.49
2022-09-05T06:14:52.371Z,21.51
2022-09-05T06:14:55.256Z,21.56
2022-09-05T06:17:01.933Z,21.60
2022-09-05T06:22:07.380Z,21.65
2022-09-05T06:23:48.055Z,21.68
2022-09-05T06:26:49.375Z,21.71
2022-09-05T06:29:37.967Z,21.75
2022-09-05T06:32:27.637Z,21.78
2022-09-05T06:35:24.029Z,21.81
2022-09-05T06:38:07.788Z,21.82
2022-09-05T06:40:42.436Z,21.83
2022-09-05T06:43:28.333Z,21.87
2022-09-05T06:46:32.222Z,21.89
2022-09-05T06:49:32.366Z,21.89
2022-09-05T06:52:36.342Z,21.91
2022-09-05T06:55:28.493Z,21.91
2022-09-05T06:58:42.508Z,21.93
2022-09-05T07:01:12.242Z,21.93
2022-09-05T07:03:59.716Z,21.98
2022-09-05T07:07:06.438Z,22.00
2022-09-05T07:09:52.060Z,22.05
2022-09-05T07:12:27.843Z,22.08
2022-09-05T07:15:10.625Z,22.12
2022-09-05T07:18:09.653Z,22.16
2022-09-05T07:21:16.016Z,22.15
2022-09-05T07:24:06.278Z,22.21
2022-09-05T07:26:54.184Z,22.23
2022-09-05T07:29:32.223Z,22.28
2022-09-05T07:32:05.744Z,22.32
2022-09-05T07:34:35.547Z,22.34
2022-09-05T07:37:14.999Z,22.40
2022-09-05T07:39:50.894Z,22.43
2022-09-05T07:42:24.286Z,22.46
2022-09-05T07:44:56.698Z,22.48
2022-09-05T07:47:30.308Z,22.50
2022-09-05T07:52:39.380Z,22.53
2022-09-05T07:56:51.385Z,22.52
2022-09-05T07:56:51.933Z,22.54
2022-09-05T07:58:41.813Z,22.58
2022-09-05T08:01:12.666Z,22.48
2022-09-05T08:03:43.991Z,22.63
2022-09-05T08:06:50.754Z,22.64
2022-09-05T08:10:05.390Z,22.58
2022-09-05T08:12:09.898Z,22.68
2022-09-05T08:14:46.124Z,22.68
2022-09-05T08:17:18.868Z,22.71
2022-09-05T08:20:10.552Z,22.73
2022-09-05T08:22:52.336Z,22.77
2022-09-05T08:25:27.568Z,22.78
2022-09-05T08:28:20.810Z,22.81
2022-09-05T08:30:58.129Z,22.83
2022-09-05T08:33:33.166Z,22.78
2022-09-05T08:36:09.189Z,22.86
2022-09-05T08:38:41.225Z,22.87
2022-09-05T08:41:18.365Z,22.87
2022-09-05T08:46:43.401Z,22.93
2022-09-05T08:46:54.458Z,22.92
2022-09-05T08:49:54.339Z,22.97
2022-09-05T08:52:34.270Z,22.97
2022-09-05T08:55:14.750Z,23.00
2022-09-05T08:58:02.552Z,22.98
2022-09-05T09:00:36.159Z,22.99
2022-09-05T09:03:15.366Z,23.02
2022-09-05T09:06:15.999Z,23.04
2022-09-05T09:09:10.357Z,23.05
2022-09-05T09:11:44.120Z,23.02
2022-09-05T09:14:38.260Z,23.08
2022-09-05T09:17:24.420Z,23.08
2022-09-05T09:20:09.907Z,23.09
2022-09-05T09:22:43.036Z,23.10
2022-09-05T09:25:16.776Z,23.12
2022-09-05T09:28:47.351Z,23.14
2022-09-05T09:31:00.490Z,23.10
2022-09-05T09:33:39.566Z,23.20
2022-09-05T09:36:23.104Z,23.23
2022-09-05T09:39:14.451Z,23.26
2022-09-05T09:42:32.557Z,23.27
2022-09-05T09:45:33.336Z,23.27
2022-09-05T09:48:27.377Z,23.29
2022-09-05T09:51:12.281Z,23.30
2022-09-05T09:54:01.112Z,23.32
2022-09-05T09:57:02.554Z,23.34
2022-09-05T09:59:54.403Z,23.37
2022-09-05T10:06:57.732Z,23.38
2022-09-05T10:10:37.915Z,23.39
2022-09-05T10:10:50.600Z,23.40
2022-09-05T10:11:54.150Z,23.40
2022-09-05T10:15:01.921Z,23.41
2022-09-05T10:18:15.211Z,23.41
2022-09-05T10:21:16.225Z,23.40
2022-09-05T10:24:26.828Z,23.40
2022-09-05T10:27:20.810Z,23.40
2022-09-05T10:30:06.588Z,23.41
2022-09-05T10:35:17.609Z,23.43
2022-09-05T10:35:37.255Z,23.34
2022-09-05T10:38:12.736Z,23.45
2022-09-05T10:41:20.127Z,23.44
2022-09-05T10:43:36.252Z,23.44
2022-09-05T10:46:46.627Z,23.46
2022-09-05T10:49:11.925Z,23.46
2022-09-05T10:51:52.042Z,23.49
2022-09-05T10:54:32.290Z,23.50
2022-09-05T10:57:13.375Z,23.53
2022-09-05T11:02:24.156Z,23.54
2022-09-05T11:02:53.953Z,23.55
2022-09-05T11:05:28.895Z,23.58
2022-09-05T11:08:06.860Z,23.60
2022-09-05T11:10:38.822Z,23.60
2022-09-05T11:13:20.034Z,23.61
2022-09-05T11:16:04.012Z,23.62
2022-09-05T11:18:56.191Z,23.63
2022-09-05T11:21:30.597Z,23.64
2022-09-05T11:24:08.516Z,23.65
2022-09-05T11:26:43.240Z,23.65
2022-09-05T11:29:18.254Z,23.66
2022-09-05T11:32:42.109Z,23.66
2022-09-05T11:39:50.314Z,23.63
2022-09-05T11:40:09.704Z,23.64
2022-09-05T11:41:57.375Z,23.66
2022-09-05T11:44:35.858Z,23.65
2022-09-05T11:47:44.591Z,23.65
2022-09-05T11:50:44.720Z,23.61
2022-09-05T11:53:57.406Z,23.59
2022-09-05T11:57:11.426Z,23.58
2022-09-05T12:00:33.143Z,23.57
2022-09-05T12:04:09.948Z,23.47
2022-09-05T12:07:16.020Z,23.53
2022-09-05T12:10:03.361Z,23.52
2022-09-05T12:12:41.072Z,23.53
2022-09-05T12:15:27.098Z,23.55
2022-09-05T12:18:19.598Z,23.56
2022-09-05T12:21:04.599Z,23.57
2022-09-05T12:24:36.806Z,23.61
2022-09-05T12:27:39.154Z,23.62
2022-09-05T12:29:45.543Z,23.65
2022-09-05T12:33:32.676Z,23.48
2022-09-05T12:36:06.600Z,23.67
2022-09-05T12:40:56.524Z,23.69
2022-09-05T12:41:44.673Z,23.70
2022-09-05T12:44:41.824Z,23.72
2022-09-05T12:47:18.536Z,23.73
2022-09-05T12:50:03.412Z,23.75
2022-09-05T12:52:46.589Z,23.74
2022-09-05T12:55:26.158Z,23.75
2022-09-05T13:02:55.479Z,23.74
2022-09-05T13:03:02.513Z,23.70
2022-09-05T13:04:15.934Z,23.69
2022-09-05T13:06:40.938Z,23.64
2022-09-05T13:09:16.877Z,23.63
2022-09-05T13:14:47.371Z,23.61
2022-09-05T13:15:11.523Z,23.58
2022-09-05T13:17:51.402Z,23.54
2022-09-05T13:20:34.250Z,23.54
2022-09-05T13:23:11.393Z,23.51
2022-09-05T13:25:43.382Z,23.52
2022-09-05T13:28:15.653Z,23.52
2022-09-05T13:34:04.478Z,23.54
2022-09-05T13:38:03.244Z,23.55
2022-09-05T13:38:15.037Z,23.56
2022-09-05T13:39:29.272Z,23.56
2022-09-05T13:42:03.433Z,23.50
2022-09-05T13:44:38.160Z,23.62
2022-09-05T13:47:16.379Z,23.66
2022-09-05T13:50:17.403Z,23.67
2022-09-05T13:52:49.824Z,23.67
2022-09-05T13:55:23.864Z,23.70
2022-09-05T13:57:57.514Z,23.70
2022-09-05T14:01:14.235Z,23.68
2022-09-05T14:05:05.168Z,23.65
2022-09-05T14:07:50.300Z,23.62
2022-09-05T14:10:45.848Z,23.60
2022-09-05T14:13:19.302Z,23.60
2022-09-05T14:15:53.858Z,23.59
2022-09-05T14:18:24.798Z,23.55
2022-09-05T14:21:15.238Z,23.58
2022-09-05T14:23:53.642Z,23.42
2022-09-05T14:26:29.598Z,23.59
2022-09-05T14:29:15.105Z,23.60
2022-09-05T14:37:37.523Z,23.60
2022-09-05T14:37:48.384Z,23.60
2022-09-05T14:38:09.434Z,23.59
2022-09-05T14:41:26.724Z,23.59
2022-09-05T14:44:19.824Z,23.61
2022-09-05T14:47:08.401Z,23.61
2022-09-05T14:50:07.245Z,23.62
2022-09-05T14:52:43.782Z,23.62
2022-09-05T15:02:42.473Z,23.66
2022-09-05T15:02:45.188Z,23.62
2022-09-05T15:06:37.945Z,23.66
2022-09-05T15:12:16.708Z,23.65
2022-09-05T15:12:23.889Z,23.64
2022-09-05T15:15:01.449Z,23.66
2022-09-05T15:17:30.625Z,23.64
2022-09-05T15:20:06.187Z,23.67
2022-09-05T15:22:37.322Z,23.67
2022-09-05T15:25:17.190Z,23.65
2022-09-05T15:27:49.504Z,23.69
2022-09-05T15:30:20.510Z,23.69
2022-09-05T15:32:50.835Z,23.69
2022-09-05T15:35:35.202Z,23.69
2022-09-05T15:38:21.769Z,23.69
2022-09-05T15:41:07.672Z,23.67
2022-09-05T15:43:40.151Z,23.69
2022-09-05T15:46:08.682Z,23.67
2022-09-05T15:48:40.900Z,23.68
2022-09-05T15:51:30.984Z,23.68
2022-09-05T15:54:02.309Z,23.65
2022-09-05T15:56:30.375Z,23.67
2022-09-05T15:59:03.018Z,23.70
2022-09-05T16:01:58.153Z,23.71
2022-09-05T16:10:30.877Z,23.69
2022-09-05T16:10:33.562Z,23.67
2022-09-05T16:10:39.106Z,23.62
2022-09-05T16:12:59.749Z,23.66
2022-09-05T16:19:36.253Z,23.66
2022-09-05T16:23:17.780Z,23.66
2022-09-05T16:23:32.023Z,23.64
2022-09-05T16:24:14.425Z,23.61
2022-09-05T16:26:47.966Z,23.61
2022-09-05T16:29:26.056Z,23.62
2022-09-05T16:32:11.805Z,23.61
2022-09-05T16:34:47.704Z,23.24
2022-09-05T16:37:19.982Z,23.58
2022-09-05T16:39:52.037Z,23.55
2022-09-05T16:42:45.715Z,23.55
2022-09-05T16:45:26.147Z,23.52
2022-09-05T16:48:09.125Z,23.49
2022-09-05T16:50:48.170Z,23.48
2022-09-05T16:53:31.021Z,23.48
2022-09-05T16:56:05.238Z,23.46
2022-09-05T16:58:38.756Z,23.45
2022-09-05T17:01:20.186Z,23.45
2022-09-05T17:03:55.734Z,23.46
2022-09-05T17:06:28.037Z,23.47
2022-09-05T17:09:12.870Z,23.48
2022-09-05T17:11:51.047Z,23.47
2022-09-05T17:14:34.929Z,23.49
2022-09-05T17:18:06.000Z,23.49
2022-09-05T17:20:07.142Z,23.46
2022-09-05T17:27:57.019Z,23.48
2022-09-05T17:29:24.033Z,23.45
2022-09-05T17:29:28.326Z,23.45
2022-09-05T17:31:53.454Z,23.44
2022-09-05T17:34:54.417Z,23.42
2022-09-05T17:37:46.476Z,23.40
2022-09-05T17:40:57.277Z,23.35
2022-09-05T17:43:29.164Z,23.30
2022-09-05T17:46:13.699Z,23.28
2022-09-05T17:49:18.469Z,23.24
2022-09-05T17:52:28.298Z,23.20
2022-09-05T17:54:57.983Z,23.16
2022-09-05T17:57:40.167Z,23.13
2022-09-05T18:00:48.656Z,23.13
2022-09-05T18:04:16.880Z,23.08
2022-09-05T18:06:59.072Z,23.05
2022-09-05T18:09:59.021Z,23.11
2022-09-05T18:16:13.135Z,23.12
2022-09-05T18:19:29.054Z,23.12
2022-09-05T18:21:54.274Z,23.14
2022-09-05T18:27:39.376Z,23.15
2022-09-05T18:30:30.085Z,23.15
2022-09-05T18:33:55.029Z,23.15
2022-09-05T18:36:40.753Z,23.15
2022-09-05T18:39:50.209Z,23.13
2022-09-05T18:42:33.583Z,23.10
2022-09-05T18:45:14.668Z,23.10
2022-09-05T18:47:53.038Z,23.10
2022-09-05T18:50:32.542Z,23.07
2022-09-05T18:53:09.518Z,23.06
2022-09-05T18:56:13.087Z,23.02
2022-09-05T18:58:35.245Z,22.99
2022-09-05T19:01:27.653Z,22.98
2022-09-05T19:04:03.957Z,22.95
2022-09-05T19:06:37.934Z,22.93
2022-09-05T19:09:09.937Z,22.92
2022-09-05T19:11:53.150Z,22.91
2022-09-05T19:14:34.926Z,22.88
2022-09-05T19:17:08.819Z,22.87
2022-09-05T19:20:32.486Z,22.86
2022-09-05T19:23:10.471Z,22.84
2022-09-05T19:25:46.385Z,22.86
2022-09-05T19:33:50.494Z,22.88
2022-09-05T19:37:08.702Z,22.86
2022-09-05T19:37:10.874Z,22.87
2022-09-05T19:37:29.223Z,22.83
2022-09-05T19:42:49.515Z,22.84
2022-09-05T19:47:29.128Z,22.83
2022-09-05T19:47:36.823Z,22.82
2022-09-05T19:48:26.981Z,22.81
2022-09-05T19:50:56.619Z,22.77
2022-09-05T19:53:28.106Z,22.82
2022-09-05T19:55:57.033Z,22.80
2022-09-05T19:58:27.796Z,22.80
2022-09-05T20:01:05.810Z,22.78
2022-09-05T20:03:39.270Z,22.76
2022-09-05T20:06:26.793Z,22.65
2022-09-05T20:09:10.978Z,22.73
2022-09-05T20:11:45.556Z,22.70
2022-09-05T20:14:22.214Z,22.70
2022-09-05T20:16:51.509Z,22.67
2022-09-05T20:19:29.547Z,22.67
2022-09-05T20:22:12.745Z,22.65
2022-09-05T20:24:51.251Z,22.63
2022-09-05T20:27:27.153Z,22.60
2022-09-05T20:29:58.212Z,22.61
2022-09-05T20:32:39.866Z,22.62
2022-09-05T20:37:51.685Z,22.62
2022-09-05T20:43:10.163Z,22.62
2022-09-05T20:43:24.000Z,22.62
2022-09-05T20:43:58.147Z,22.62
2022-09-05T20:50:45.636Z,22.60
2022-09-05T20:54:14.020Z,22.63
2022-09-05T20:54:23.202Z,22.61
2022-09-05T20:55:37.990Z,22.61
2022-09-05T20:57:51.072Z,22.61
2022-09-05T21:00:23.012Z,22.61
2022-09-05T21:02:54.671Z,22.62
2022-09-05T21:05:30.190Z,22.62
2022-09-05T21:08:25.986Z,22.62
2022-09-05T21:10:56.545Z,22.41
2022-09-05T21:13:28.214Z,22.63
2022-09-05T21:15:57.199Z,22.60
2022-09-05T21:18:33.232Z,22.45
2022-09-05T21:21:14.587Z,22.56
2022-09-05T21:24:16.291Z,22.54
2022-09-05T21:26:50.523Z,22.51
2022-09-05T21:29:27.552Z,22.51
2022-09-05T21:32:02.380Z,22.47
2022-09-05T21:34:38.419Z,22.46
2022-09-05T21:37:15.288Z,22.43
2022-09-05T21:39:59.244Z,22.42
2022-09-05T21:45:18.106Z,22.23
2022-09-05T21:47:49.220Z,22.38
2022-09-05T21:48:15.260Z,22.36
2022-09-05T21:50:46.861Z,22.38
2022-09-05T21:56:46.662Z,22.39
2022-09-05T21:59:18.250Z,22.36
2022-09-05T21:59:28.694Z,22.28
2022-09-05T22:01:58.826Z,22.34
2022-09-05T22:04:27.050Z,22.33
2022-09-05T22:06:57.628Z,22.31
2022-09-05T22:09:25.670Z,22.31
2022-09-05T22:11:53.817Z,22.32
2022-09-05T22:14:24.364Z,22.29
2022-09-05T22:16:56.278Z,22.31
2022-09-05T22:19:37.347Z,22.30
2022-09-05T22:22:17.643Z,22.30
2022-09-05T22:24:53.309Z,22.31
2022-09-05T22:27:23.875Z,22.28
2022-09-05T22:29:52.426Z,22.27
2022-09-05T22:32:30.957Z,22.27
2022-09-05T22:35:26.931Z,22.10
2022-09-05T22:38:07.050Z,22.23
2022-09-05T22:40:37.968Z,22.19
2022-09-05T22:43:07.591Z,22.19
2022-09-05T22:45:38.247Z,22.18
2022-09-05T22:48:11.719Z,22.18
2022-09-05T22:50:42.289Z,22.14
2022-09-05T22:53:11.042Z,22.00
2022-09-05T22:55:41.388Z,22.12
2022-09-05T22:58:11.760Z,22.10
2022-09-05T23:00:41.339Z,22.08
2022-09-05T23:03:09.387Z,22.07
2022-09-05T23:05:37.400Z,22.07
2022-09-05T23:08:07.420Z,22.09
2022-09-05T23:10:36.520Z,22.08
2022-09-05T23:13:05.850Z,22.07
2022-09-05T23:15:34.030Z,22.07
2022-09-05T23:18:02.877Z,22.06
2022-09-05T23:20:33.109Z,21.86
2022-09-05T23:23:04.600Z,21.98
2022-09-05T23:25:34.401Z,22.03
2022-09-05T23:28:06.278Z,22.04
2022-09-05T23:30:34.312Z,22.03
2022-09-05T23:33:02.285Z,22.03
2022-09-05T23:35:30.299Z,22.02
2022-09-05T23:37:58.276Z,22.04
2022-09-05T23:40:26.954Z,22.03
2022-09-05T23:42:58.108Z,22.04
2022-09-05T23:45:27.128Z,22.02
2022-09-05T23:47:55.695Z,21.90
2022-09-05T23:50:23.744Z,21.95
2022-09-05T23:52:51.776Z,21.97
2022-09-05T23:55:22.474Z,21.97
2022-09-05T23:57:50.600Z,21.97
